Time;durP1;ratioP1;P1;durP2;ratioP2;P2;SDS_P1;SDS_P2;PMS_P1;PMS_P2;Temp;Humidity;BMP_temperature;BMP_pressure;BME280_temperature;BME280_humidity;BME280_pressure;Samples;Min_cycle;Max_cycle;Signal;HPM_P1;HPM_P2
2021/07/01 00:01:37;;;;;;;7.43;6.83;;;20.40;99.90;;;;;;5075265;28;20500;-67
2021/07/01 00:04:04;;;;;;;6.63;6.03;;;20.30;99.90;;;;;;5075700;28;20462;-67
2021/07/01 00:06:31;;;;;;;5.33;4.90;;;20.30;99.90;;;;;;5075203;28;20470;-67
2021/07/01 00:08:59;;;;;;;15.07;11.70;;;20.30;99.90;;;;;;5075587;28;20983;-67
2021/07/01 00:11:26;;;;;;;9.30;8.30;;;20.30;99.90;;;;;;5075002;28;20466;-67
2021/07/01 00:13:53;;;;;;;12.10;10.90;;;20.30;99.90;;;;;;5075380;28;20470;-66
2021/07/01 00:16:20;;;;;;;9.20;8.40;;;20.30;99.90;;;;;;5075203;28;20974;-67
2021/07/01 00:18:48;;;;;;;7.30;6.70;;;20.30;99.90;;;;;;5062215;28;20466;-67
2021/07/01 00:21:15;;;;;;;7.70;6.50;;;20.30;99.90;;;;;;5075495;28;20471;-67
2021/07/01 00:23:42;;;;;;;7.37;6.77;;;20.30;99.90;;;;;;5074935;28;20458;-67
2021/07/01 00:26:10;;;;;;;8.10;7.40;;;20.30;99.90;;;;;;5066204;28;20467;-67
2021/07/01 00:28:37;;;;;;;9.30;8.33;;;20.30;99.90;;;;;;5066497;28;20852;-66
2021/07/01 00:31:04;;;;;;;7.77;7.17;;;20.30;99.90;;;;;;5075503;28;20530;-67
2021/07/01 00:33:31;;;;;;;9.30;8.50;;;20.20;99.90;;;;;;5066468;28;20467;-67
2021/07/01 00:35:58;;;;;;;9.83;8.90;;;20.30;99.90;;;;;;5073847;28;20797;-67
2021/07/01 00:38:25;;;;;;;6.50;5.90;;;20.20;99.90;;;;;;5074483;28;20473;-67
2021/07/01 00:40:52;;;;;;;10.93;9.93;;;20.20;99.90;;;;;;5075066;28;21003;-67
2021/07/01 00:43:20;;;;;;;11.63;8.70;;;20.20;99.90;;;;;;5075179;28;20470;-66
2021/07/01 00:45:47;;;;;;;7.63;6.50;;;20.20;99.90;;;;;;5073930;28;20450;-66
2021/07/01 00:48:14;;;;;;;5.20;4.80;;;20.20;99.90;;;;;;5074656;28;20478;-66
2021/07/01 00:50:41;;;;;;;7.77;6.97;;;20.20;99.90;;;;;;5074593;28;20523;-67
2021/07/01 00:53:08;;;;;;;7.97;7.20;;;20.20;99.90;;;;;;5075021;28;20465;-67
2021/07/01 00:55:35;;;;;;;6.57;5.97;;;20.20;99.90;;;;;;5074401;28;20477;-67
2021/07/01 00:58:02;;;;;;;5.93;5.40;;;20.20;99.90;;;;;;5074722;28;20473;-66
2021/07/01 01:00:42;;;;;;;10.47;8.13;;;20.20;99.90;;;;;;5074265;28;20857;-67
2021/07/01 01:03:09;;;;;;;8.20;7.57;;;20.10;99.90;;;;;;5074492;28;20554;-67
2021/07/01 01:05:36;;;;;;;6.57;5.97;;;20.10;99.90;;;;;;5074254;28;20470;-67
2021/07/01 01:08:04;;;;;;;7.53;6.93;;;20.10;99.90;;;;;;5074571;28;20470;-67
2021/07/01 01:10:31;;;;;;;7.47;6.80;;;20.10;99.90;;;;;;5068312;28;20489;-67
2021/07/01 01:12:58;;;;;;;9.70;8.67;;;20.10;99.90;;;;;;5074355;28;20464;-67
2021/07/01 01:15:27;;;;;;;9.57;8.70;;;20.10;99.90;;;;;;5074019;28;20470;-66
2021/07/01 01:17:55;;;;;;;9.33;8.43;;;20.10;99.90;;;;;;5062485;28;20554;-67
2021/07/01 01:20:22;;;;;;;9.20;8.30;;;20.10;99.90;;;;;;5069495;28;20466;-67
2021/07/01 01:22:50;;;;;;;9.37;8.47;;;20.10;99.90;;;;;;5073840;28;20469;-67
2021/07/01 01:25:17;;;;;;;7.80;7.10;;;20.10;99.90;;;;;;5072193;28;20492;-67
2021/07/01 01:27:44;;;;;;;8.10;7.40;;;20.10;99.90;;;;;;5067550;28;20483;-66
2021/07/01 01:30:13;;;;;;;10.10;9.20;;;20.10;99.90;;;;;;5074336;28;20791;-67
2021/07/01 01:32:40;;;;;;;7.90;7.20;;;20.10;99.90;;;;;;5070197;28;20471;-67
2021/07/01 01:35:08;;;;;;;8.50;7.70;;;20.10;99.90;;;;;;5065854;28;20490;-67
2021/07/01 01:37:35;;;;;;;10.27;9.27;;;20.10;99.90;;;;;;5053943;28;20467;-66
2021/07/01 01:40:03;;;;;;;13.07;11.67;;;20.10;99.90;;;;;;5051859;28;20565;-67
2021/07/01 01:42:30;;;;;;;13.93;10.87;;;20.10;99.90;;;;;;5052685;28;20479;-67
2021/07/01 01:44:57;;;;;;;9.37;8.47;;;20.10;99.90;;;;;;5053285;28;20470;-66
2021/07/01 01:47:24;;;;;;;8.93;7.97;;;20.10;99.90;;;;;;5052939;28;20471;-67
2021/07/01 01:49:51;;;;;;;10.47;9.37;;;20.10;99.90;;;;;;5052716;28;20956;-67
2021/07/01 01:52:19;;;;;;;10.83;9.43;;;20.10;99.90;;;;;;5051413;28;20478;-67
2021/07/01 01:54:45;;;;;;;11.90;10.80;;;20.10;99.90;;;;;;5051677;28;20928;-67
2021/07/01 01:57:14;;;;;;;10.50;9.53;;;20.10;99.90;;;;;;5051093;28;20497;-67
2021/07/01 01:59:41;;;;;;;8.80;7.90;;;20.10;99.90;;;;;;5051614;28;20472;-66
2021/07/01 02:02:08;;;;;;;7.53;6.83;;;20.10;99.90;;;;;;5052194;28;20846;-67
2021/07/01 02:04:35;;;;;;;9.57;8.53;;;20.10;99.90;;;;;;5052226;28;20801;-66
2021/07/01 02:07:01;;;;;;;9.30;8.40;;;20.10;99.90;;;;;;5053614;28;20471;-67
2021/07/01 02:09:28;;;;;;;7.90;7.20;;;20.10;99.90;;;;;;5053103;28;20471;-66
2021/07/01 02:11:55;;;;;;;8.47;7.67;;;20.10;99.90;;;;;;5053315;28;20466;-67
2021/07/01 02:14:24;;;;;;;9.23;8.20;;;20.00;99.90;;;;;;5053532;28;20533;-67
2021/07/01 02:16:51;;;;;;;13.87;12.47;;;20.00;99.90;;;;;;5055975;28;20462;-67
2021/07/01 02:19:17;;;;;;;9.67;8.67;;;20.10;99.90;;;;;;5073065;28;21147;-67
2021/07/01 02:21:44;;;;;;;9.40;8.50;;;20.00;99.90;;;;;;5073025;28;20462;-67
2021/07/01 02:24:11;;;;;;;11.40;8.87;;;20.00;99.90;;;;;;5073367;28;20465;-67
2021/07/01 02:26:38;;;;;;;9.87;8.50;;;20.00;99.90;;;;;;5063984;28;20466;-66
2021/07/01 02:29:05;;;;;;;9.53;8.23;;;20.00;99.90;;;;;;5053243;28;20477;-66
2021/07/01 02:31:34;;;;;;;7.97;6.90;;;20.10;99.90;;;;;;5052917;28;20466;-66
2021/07/01 02:34:01;;;;;;;9.50;8.40;;;20.00;99.90;;;;;;5053080;28;20462;-67
2021/07/01 02:36:28;;;;;;;7.90;7.20;;;20.10;99.90;;;;;;5053057;28;20474;-67
2021/07/01 02:38:55;;;;;;;6.20;5.60;;;20.00;99.90;;;;;;5052708;28;20459;-67
2021/07/01 02:41:22;;;;;;;7.57;6.87;;;20.00;99.90;;;;;;5053139;28;21002;-67
2021/07/01 02:43:49;;;;;;;7.70;6.97;;;20.00;99.90;;;;;;5052692;28;20812;-66
2021/07/01 02:46:18;;;;;;;5.77;5.30;;;20.00;99.90;;;;;;5053202;28;20467;-67
2021/07/01 02:48:46;;;;;;;5.97;5.37;;;20.00;99.90;;;;;;5052413;28;20471;-67
2021/07/01 02:51:13;;;;;;;6.73;6.20;;;20.00;99.90;;;;;;5053000;28;20988;-66
2021/07/01 02:53:40;;;;;;;6.00;5.47;;;20.00;99.90;;;;;;5052500;28;20486;-67
2021/07/01 02:56:07;;;;;;;5.07;4.60;;;20.00;99.90;;;;;;5052694;28;20486;-67
2021/07/01 02:58:34;;;;;;;6.27;5.70;;;19.90;99.90;;;;;;5052307;28;20544;-67
2021/07/01 03:01:01;;;;;;;5.13;4.70;;;19.90;99.90;;;;;;5052843;28;20473;-67
2021/07/01 03:03:28;;;;;;;5.30;4.90;;;19.90;99.90;;;;;;5052839;28;20482;-67
2021/07/01 03:05:57;;;;;;;5.63;5.13;;;19.90;99.90;;;;;;5052540;28;20852;-67
2021/07/01 03:08:23;;;;;;;5.17;4.77;;;19.90;99.90;;;;;;5052419;28;20483;-67
2021/07/01 03:10:50;;;;;;;4.30;3.90;;;19.90;99.90;;;;;;5052317;28;20840;-67
2021/07/01 03:13:17;;;;;;;4.77;3.73;;;19.90;99.90;;;;;;5052665;28;20475;-67
2021/07/01 03:15:44;;;;;;;4.90;4.20;;;19.80;99.90;;;;;;5052315;28;20478;-67
2021/07/01 03:18:11;;;;;;;4.03;3.73;;;19.80;99.90;;;;;;5066442;28;20466;-67
2021/07/01 03:20:38;;;;;;;4.20;3.80;;;19.80;99.90;;;;;;5072294;28;20540;-67
2021/07/01 03:23:06;;;;;;;6.53;3.40;;;19.70;99.90;;;;;;5072667;28;20468;-67
2021/07/01 03:25:33;;;;;;;3.57;3.27;;;19.70;99.90;;;;;;5072119;28;20957;-67
2021/07/01 03:28:00;;;;;;;4.60;2.77;;;19.70;99.90;;;;;;5072389;28;20468;-67
2021/07/01 03:30:27;;;;;;;2.60;2.40;;;19.70;99.90;;;;;;5072603;28;20466;-67
2021/07/01 03:32:54;;;;;;;3.57;3.27;;;19.70;99.90;;;;;;5071879;28;20492;-67
2021/07/01 03:35:21;;;;;;;3.73;3.00;;;19.70;99.90;;;;;;5072604;28;20470;-67
2021/07/01 03:37:48;;;;;;;2.80;2.60;;;19.70;99.90;;;;;;5071825;28;20622;-67
2021/07/01 03:40:16;;;;;;;2.80;2.57;;;19.60;99.90;;;;;;5072430;28;20469;-67
2021/07/01 03:42:43;;;;;;;3.20;2.90;;;19.60;99.90;;;;;;5071944;28;20464;-67
2021/07/01 03:45:11;;;;;;;3.67;3.37;;;19.60;99.90;;;;;;5072428;28;20804;-67
2021/07/01 03:47:38;;;;;;;3.97;3.67;;;19.60;99.90;;;;;;5071862;28;20495;-67
2021/07/01 03:50:07;;;;;;;4.50;4.10;;;19.50;99.90;;;;;;5072282;28;20499;-67
2021/07/01 03:52:34;;;;;;;4.37;3.30;;;19.50;99.90;;;;;;5072347;28;20808;-67
2021/07/01 03:55:01;;;;;;;3.83;3.40;;;19.50;99.90;;;;;;5072314;28;20468;-67
2021/07/01 03:57:29;;;;;;;6.00;5.40;;;19.40;99.90;;;;;;5072142;28;20474;-67
2021/07/01 03:59:56;;;;;;;5.33;4.80;;;19.40;99.90;;;;;;5071654;28;20812;-67
2021/07/01 04:02:23;;;;;;;7.07;6.40;;;19.40;99.90;;;;;;5072426;28;20497;-67
2021/07/01 04:04:50;;;;;;;4.10;3.70;;;19.40;99.90;;;;;;5071685;28;20480;-67
2021/07/01 04:07:17;;;;;;;4.90;4.33;;;19.40;99.90;;;;;;5071962;28;20461;-67
2021/07/01 04:09:43;;;;;;;4.20;3.80;;;19.30;99.90;;;;;;5071949;28;20492;-67
2021/07/01 04:12:10;;;;;;;2.83;2.57;;;19.30;99.90;;;;;;5071999;28;20469;-67
2021/07/01 04:14:41;;;;;;;4.13;3.73;;;19.20;99.90;;;;;;5071638;28;20548;-67
2021/07/01 04:17:09;;;;;;;2.60;2.40;;;19.20;99.90;;;;;;5070207;28;20462;-67
2021/07/01 04:19:36;;;;;;;6.10;5.33;;;19.20;99.90;;;;;;5071858;28;20495;-67
2021/07/01 04:22:03;;;;;;;3.40;3.00;;;19.20;99.90;;;;;;5074548;28;20465;-67
2021/07/01 04:24:30;;;;;;;2.83;2.63;;;19.20;99.90;;;;;;5075636;28;20841;-67
2021/07/01 04:26:57;;;;;;;3.20;2.97;;;19.20;99.90;;;;;;5075066;28;20477;-68
2021/07/01 04:29:24;;;;;;;2.73;2.53;;;19.20;99.90;;;;;;5075455;28;20472;-68
2021/07/01 04:31:52;;;;;;;3.80;3.10;;;19.20;99.90;;;;;;5075210;28;20466;-66
2021/07/01 04:34:19;;;;;;;2.90;2.57;;;19.20;99.90;;;;;;5075383;28;20792;-68
2021/07/01 04:36:46;;;;;;;2.73;2.53;;;19.20;99.90;;;;;;5074944;28;20469;-66
2021/07/01 04:39:16;;;;;;;3.17;2.87;;;19.20;99.90;;;;;;5075460;28;20774;-66
2021/07/01 04:41:43;;;;;;;3.73;2.90;;;19.10;99.90;;;;;;5075088;28;20688;-66
2021/07/01 04:44:10;;;;;;;3.30;3.00;;;19.10;99.90;;;;;;5075260;28;20484;-69
2021/07/01 04:46:37;;;;;;;2.63;2.43;;;19.10;99.90;;;;;;5075381;28;20470;-67
2021/07/01 04:49:05;;;;;;;4.10;3.70;;;19.10;99.90;;;;;;5074728;28;20476;-67
2021/07/01 04:51:32;;;;;;;5.77;4.93;;;19.10;99.90;;;;;;5075196;28;20472;-67
2021/07/01 04:53:59;;;;;;;6.90;5.80;;;19.10;99.90;;;;;;5061033;28;20475;-66
2021/07/01 04:56:42;;;;;;;3.23;2.93;;;19.10;99.90;;;;;;5055066;28;20790;-65
2021/07/01 04:59:09;;;;;;;3.83;3.30;;;19.10;99.90;;;;;;5054645;28;20491;-66
2021/07/01 05:01:36;;;;;;;3.13;2.87;;;19.00;99.90;;;;;;5054913;28;20473;-66
2021/07/01 05:04:07;;;;;;;2.60;2.40;;;19.00;99.90;;;;;;5054380;28;20468;-67
2021/07/01 05:06:34;;;;;;;2.70;2.50;;;19.00;99.90;;;;;;5054699;28;20470;-67
2021/07/01 05:09:00;;;;;;;2.50;2.10;;;19.00;99.90;;;;;;5054356;28;20466;-66
2021/07/01 05:11:27;;;;;;;1.83;1.57;;;19.00;99.90;;;;;;5054574;28;20461;-67
2021/07/01 05:13:56;;;;;;;2.10;1.53;;;19.00;99.90;;;;;;5054155;28;20470;-66
2021/07/01 05:16:22;;;;;;;1.77;1.60;;;19.00;99.90;;;;;;5054957;28;20797;-66
2021/07/01 05:18:49;;;;;;;2.73;2.53;;;19.00;99.90;;;;;;5058228;28;20829;-67
2021/07/01 05:21:18;;;;;;;1.80;1.70;;;19.00;99.90;;;;;;5054533;28;20470;-67
2021/07/01 05:23:45;;;;;;;1.67;1.50;;;19.00;99.90;;;;;;5059258;28;20955;-67
2021/07/01 05:26:12;;;;;;;2.07;1.50;;;19.00;99.90;;;;;;5074361;28;20459;-67
2021/07/01 05:28:39;;;;;;;2.00;1.80;;;18.90;99.90;;;;;;5074509;28;20525;-67
2021/07/01 05:31:06;;;;;;;2.03;1.80;;;18.90;99.90;;;;;;5074130;28;20462;-67
2021/07/01 05:33:32;;;;;;;2.00;1.90;;;18.90;99.90;;;;;;5074160;28;20471;-67
2021/07/01 05:35:59;;;;;;;2.30;2.10;;;18.90;99.90;;;;;;5073943;28;20470;-67
2021/07/01 05:38:28;;;;;;;2.70;2.07;;;18.90;99.90;;;;;;5074278;28;20501;-67
2021/07/01 05:40:55;;;;;;;2.13;1.90;;;18.90;99.90;;;;;;5073602;28;20465;-67
2021/07/01 05:43:22;;;;;;;3.03;2.23;;;18.90;99.90;;;;;;5074330;28;20480;-67
2021/07/01 05:45:48;;;;;;;2.17;1.80;;;18.90;99.90;;;;;;5073565;28;20464;-67
2021/07/01 05:48:15;;;;;;;2.20;1.80;;;18.90;99.90;;;;;;5073841;28;20465;-67
2021/07/01 05:50:47;;;;;;;1.40;1.30;;;18.90;99.90;;;;;;5074108;28;20469;-67
2021/07/01 05:53:22;;;;;;;1.80;1.70;;;18.90;99.90;;;;;;5073511;28;21061;-67
2021/07/01 05:55:50;;;;;;;1.50;1.40;;;18.90;99.90;;;;;;5073794;28;20461;-67
2021/07/01 05:58:17;;;;;;;1.93;1.43;;;18.90;99.90;;;;;;5073547;28;21605;-68
2021/07/01 06:00:44;;;;;;;2.80;1.60;;;18.90;99.90;;;;;;5073730;28;20487;-68
2021/07/01 06:03:11;;;;;;;1.63;1.53;;;18.90;99.90;;;;;;5073236;28;21127;-68
2021/07/01 06:05:39;;;;;;;1.37;1.27;;;18.90;99.90;;;;;;5073800;28;20460;-67
2021/07/01 06:08:09;;;;;;;3.97;1.97;;;18.90;99.90;;;;;;5066782;28;20468;-67
2021/07/01 06:10:40;;;;;;;2.77;2.57;;;18.90;99.90;;;;;;5056055;28;20470;-68
2021/07/01 06:13:09;;;;;;;2.57;2.37;;;18.90;99.90;;;;;;5052911;28;20494;-67
2021/07/01 06:15:36;;;;;;;2.80;2.60;;;18.90;99.90;;;;;;5059345;28;20476;-68
2021/07/01 06:18:04;;;;;;;2.27;2.07;;;18.90;99.90;;;;;;5064409;28;20968;-67
2021/07/01 06:20:31;;;;;;;3.27;3.07;;;18.90;99.90;;;;;;5053465;28;20470;-67
2021/07/01 06:22:58;;;;;;;2.67;2.33;;;18.90;99.90;;;;;;5052985;28;20471;-67
2021/07/01 06:25:24;;;;;;;3.63;2.83;;;18.90;99.90;;;;;;5071554;28;20551;-67
2021/07/01 06:27:52;;;;;;;2.17;1.97;;;18.90;99.90;;;;;;5073329;28;20477;-67
2021/07/01 06:30:21;;;;;;;4.30;2.80;;;18.90;99.90;;;;;;5072946;28;20458;-67
2021/07/01 06:32:51;;;;;;;1.60;1.40;;;18.90;99.90;;;;;;5073116;28;20562;-68
2021/07/01 06:35:20;;;;;;;2.20;2.00;;;18.80;99.90;;;;;;5072600;28;20468;-67
2021/07/01 06:37:48;;;;;;;2.27;2.07;;;18.80;99.90;;;;;;5073142;28;20495;-67
2021/07/01 06:40:16;;;;;;;2.33;1.83;;;18.70;99.90;;;;;;5072463;28;20472;-67
2021/07/01 06:42:47;;;;;;;2.13;1.93;;;18.70;99.90;;;;;;5054571;28;20482;-68
2021/07/01 06:45:17;;;;;;;1.83;1.73;;;18.70;99.90;;;;;;5052223;28;20477;-67
2021/07/01 06:47:50;;;;;;;1.60;1.50;;;18.70;99.90;;;;;;5052812;28;20475;-67
2021/07/01 06:50:19;;;;;;;1.90;1.80;;;18.70;99.90;;;;;;5052513;28;20462;-68
2021/07/01 06:52:46;;;;;;;1.73;1.63;;;18.70;99.90;;;;;;5052898;28;20481;-67
2021/07/01 06:55:14;;;;;;;2.20;2.03;;;18.70;99.90;;;;;;5052415;28;20480;-67
2021/07/01 06:57:41;;;;;;;2.50;2.30;;;18.70;99.90;;;;;;5052639;28;20473;-67
2021/07/01 07:00:11;;;;;;;5.23;2.30;;;18.60;99.90;;;;;;5052392;28;20471;-67
2021/07/01 07:02:40;;;;;;;1.80;1.70;;;18.60;99.90;;;;;;5052391;28;20469;-67
2021/07/01 07:05:10;;;;;;;3.00;1.83;;;18.60;99.90;;;;;;5051059;28;20476;-67
2021/07/01 07:07:37;;;;;;;3.40;3.07;;;18.60;99.90;;;;;;5052932;28;20504;-68
2021/07/01 07:10:06;;;;;;;2.03;1.93;;;18.60;99.90;;;;;;5052287;28;20962;-67
2021/07/01 07:12:39;;;;;;;1.90;1.57;;;18.60;99.90;;;;;;5052460;28;20475;-67
2021/07/01 07:15:07;;;;;;;5.67;2.90;;;18.60;99.90;;;;;;5052208;28;20470;-68
2021/07/01 07:17:37;;;;;;;4.40;2.80;;;18.60;99.90;;;;;;5052709;28;20785;-67
2021/07/01 07:20:06;;;;;;;3.57;3.27;;;18.70;99.90;;;;;;5051947;28;20507;-67
2021/07/01 07:22:39;;;;;;;3.00;2.80;;;18.60;99.90;;;;;;5052621;28;20537;-67
2021/07/01 07:25:09;;;;;;;2.20;1.80;;;18.60;99.90;;;;;;5052351;28;20970;-67
2021/07/01 07:27:39;;;;;;;3.73;2.93;;;18.70;99.90;;;;;;5052445;28;20488;-67
2021/07/01 07:30:07;;;;;;;2.70;2.50;;;18.60;99.90;;;;;;5051979;28;20994;-67
2021/07/01 07:32:36;;;;;;;2.93;2.60;;;18.60;99.90;;;;;;5052453;28;20472;-67
2021/07/01 07:35:04;;;;;;;2.27;2.07;;;18.70;99.90;;;;;;5052112;28;20478;-68
2021/07/01 07:37:31;;;;;;;2.93;2.37;;;18.70;99.90;;;;;;5052289;28;20481;-67
2021/07/01 07:40:03;;;;;;;3.00;2.20;;;18.60;99.90;;;;;;5052393;28;20479;-67
2021/07/01 07:42:31;;;;;;;2.10;2.00;;;18.60;99.90;;;;;;5052114;28;20463;-67
2021/07/01 07:44:59;;;;;;;2.63;2.43;;;18.60;99.90;;;;;;5052224;28;20474;-68
2021/07/01 07:47:28;;;;;;;2.37;2.17;;;18.60;99.90;;;;;;5051914;28;20542;-67
2021/07/01 07:49:55;;;;;;;2.00;1.80;;;18.60;99.90;;;;;;5052316;28;20527;-67
2021/07/01 07:52:23;;;;;;;2.07;1.87;;;18.60;99.90;;;;;;5051890;28;20812;-67
2021/07/01 07:54:54;;;;;;;2.37;2.13;;;18.60;99.90;;;;;;5052201;28;20461;-67
2021/07/01 07:57:27;;;;;;;2.50;2.30;;;18.70;99.90;;;;;;5055456;28;20472;-67
2021/07/01 07:59:56;;;;;;;2.40;2.20;;;18.60;99.90;;;;;;5055933;28;20461;-68
2021/07/01 08:02:37;;;;;;;2.90;2.70;;;18.70;99.90;;;;;;5055461;28;20468;-67
2021/07/01 08:05:05;;;;;;;3.60;3.30;;;18.60;99.90;;;;;;5056288;28;20478;-67
2021/07/01 08:07:32;;;;;;;3.67;3.37;;;18.70;99.90;;;;;;5055591;28;20487;-67
2021/07/01 08:10:02;;;;;;;3.10;2.90;;;18.70;99.90;;;;;;5055836;28;20969;-68
2021/07/01 08:12:31;;;;;;;3.17;2.87;;;18.70;99.90;;;;;;5055395;28;20514;-68
2021/07/01 08:14:58;;;;;;;3.70;3.40;;;18.70;99.90;;;;;;5055910;28;20465;-68
2021/07/01 08:17:26;;;;;;;2.53;2.30;;;18.70;99.90;;;;;;5055184;28;20497;-66
2021/07/01 08:19:53;;;;;;;3.93;1.90;;;18.70;99.90;;;;;;5055754;28;20467;-68
2021/07/01 08:22:23;;;;;;;2.03;1.50;;;18.70;99.90;;;;;;5055215;28;20482;-67
2021/07/01 08:24:51;;;;;;;3.10;2.00;;;18.60;99.90;;;;;;5055657;28;20472;-68
2021/07/01 08:27:19;;;;;;;1.70;1.60;;;18.70;99.90;;;;;;5054927;28;20496;-67
2021/07/01 08:29:48;;;;;;;1.83;1.73;;;18.70;99.90;;;;;;5055565;28;20488;-67
2021/07/01 08:32:17;;;;;;;1.70;1.60;;;18.60;99.90;;;;;;5055093;28;20549;-68
2021/07/01 08:34:47;;;;;;;2.60;1.87;;;18.60;99.90;;;;;;5055400;28;20456;-68
2021/07/01 08:37:15;;;;;;;4.03;2.77;;;18.60;99.90;;;;;;5063222;28;20468;-68
2021/07/01 08:39:42;;;;;;;2.90;1.70;;;18.60;99.90;;;;;;5075239;28;20479;-67
2021/07/01 08:42:15;;;;;;;2.27;2.07;;;18.60;99.90;;;;;;5075263;28;20477;-68
2021/07/01 08:44:44;;;;;;;2.67;2.30;;;18.60;99.90;;;;;;5074973;28;20530;-68
2021/07/01 08:47:15;;;;;;;2.30;2.07;;;18.60;99.90;;;;;;5075200;28;20861;-68
2021/07/01 08:49:54;;;;;;;2.50;2.30;;;18.60;99.90;;;;;;5074761;28;20466;-68
2021/07/01 08:52:25;;;;;;;1.90;1.80;;;18.60;99.90;;;;;;5074555;28;20472;-68
2021/07/01 08:54:58;;;;;;;2.37;2.17;;;18.60;99.90;;;;;;5075171;28;20469;-68
2021/07/01 08:57:30;;;;;;;2.40;2.13;;;18.60;99.90;;;;;;5074432;28;20501;-68
2021/07/01 09:00:03;;;;;;;2.83;2.17;;;18.60;99.90;;;;;;5075138;28;20834;-67
2021/07/01 09:02:35;;;;;;;3.23;2.93;;;18.60;99.90;;;;;;5074609;28;20468;-67
2021/07/01 09:05:09;;;;;;;3.57;3.27;;;18.60;99.90;;;;;;5072609;28;20459;-66
2021/07/01 09:07:38;;;;;;;4.10;3.23;;;18.60;99.90;;;;;;5054072;28;20851;-66
2021/07/01 09:10:11;;;;;;;2.67;2.47;;;18.60;99.90;;;;;;5054799;28;20466;-66
2021/07/01 09:12:42;;;;;;;2.47;2.27;;;18.60;99.90;;;;;;5054294;28;20788;-66
2021/07/01 09:15:11;;;;;;;2.93;2.73;;;18.60;99.90;;;;;;5054869;28;20540;-66
2021/07/01 09:17:47;;;;;;;4.83;2.50;;;18.70;99.90;;;;;;5054119;28;20492;-65
2021/07/01 09:20:18;;;;;;;21.23;19.10;;;18.60;99.90;;;;;;5054551;28;20546;-66
2021/07/01 09:22:46;;;;;;;13.70;12.30;;;18.60;99.90;;;;;;5054533;28;20448;-66
2021/07/01 09:25:15;;;;;;;5.67;5.20;;;18.60;99.90;;;;;;5054379;28;20503;-66
2021/07/01 09:27:44;;;;;;;4.40;3.40;;;18.60;99.90;;;;;;5054040;28;20466;-65
2021/07/01 09:30:13;;;;;;;2.87;2.63;;;18.60;99.90;;;;;;5054452;28;20501;-66
2021/07/01 09:32:42;;;;;;;3.27;2.97;;;18.60;99.90;;;;;;5054181;28;20975;-66
2021/07/01 09:35:11;;;;;;;3.30;3.00;;;18.60;99.90;;;;;;5054390;28;20538;-66
2021/07/01 09:37:44;;;;;;;4.60;2.70;;;18.50;99.90;;;;;;5053731;28;20472;-66
2021/07/01 09:40:13;;;;;;;2.70;2.50;;;18.50;99.90;;;;;;5072627;28;20836;-66
2021/07/01 09:42:40;;;;;;;4.03;3.73;;;18.50;99.90;;;;;;5073548;28;20465;-66
2021/07/01 09:45:11;;;;;;;3.00;2.80;;;18.50;99.90;;;;;;5074209;28;20463;-66
2021/07/01 09:47:40;;;;;;;3.87;3.57;;;18.50;99.90;;;;;;5073676;28;20543;-66
2021/07/01 09:50:10;;;;;;;2.90;2.70;;;18.50;99.90;;;;;;5074047;28;20883;-66
2021/07/01 09:52:40;;;;;;;3.40;3.10;;;18.50;99.90;;;;;;5073511;28;20488;-66
2021/07/01 09:55:09;;;;;;;2.63;2.43;;;18.50;99.90;;;;;;5073963;28;20532;-66
2021/07/01 09:57:38;;;;;;;3.33;3.03;;;18.50;99.90;;;;;;5073339;28;20467;-66
2021/07/01 10:00:08;;;;;;;3.03;2.83;;;18.50;99.90;;;;;;5073635;28;20481;-66
2021/07/01 10:02:35;;;;;;;3.23;3.03;;;18.50;99.90;;;;;;5073284;28;20502;-66
2021/07/01 10:05:04;;;;;;;4.87;4.37;;;18.50;99.90;;;;;;5073688;28;20468;-66
2021/07/01 10:07:35;;;;;;;3.57;3.27;;;18.50;99.90;;;;;;5073088;28;20472;-65
2021/07/01 10:10:13;;;;;;;3.90;3.60;;;18.50;99.90;;;;;;5073644;28;20464;-66
2021/07/01 10:12:51;;;;;;;4.30;3.87;;;18.50;99.90;;;;;;5073030;28;20470;-66
2021/07/01 10:15:30;;;;;;;5.53;5.07;;;18.50;99.90;;;;;;5073454;28;20477;-66
2021/07/01 10:18:06;;;;;;;4.50;4.10;;;18.50;99.90;;;;;;5072668;28;20452;-66
2021/07/01 10:20:34;;;;;;;5.00;4.60;;;18.50;99.90;;;;;;5072866;28;20555;-66
2021/07/01 10:23:03;;;;;;;4.63;4.33;;;18.50;99.90;;;;;;5073635;28;20480;-66
2021/07/01 10:25:32;;;;;;;4.27;3.97;;;18.50;99.90;;;;;;5073466;28;20517;-66
2021/07/01 10:28:10;;;;;;;3.90;3.60;;;18.50;99.90;;;;;;5072821;28;20463;-66
2021/07/01 10:30:37;;;;;;;5.87;5.37;;;18.50;99.90;;;;;;5072159;28;20822;-65
2021/07/01 10:33:05;;;;;;;4.33;4.03;;;18.50;99.90;;;;;;5072971;28;20468;-66
2021/07/01 10:35:34;;;;;;;4.90;4.50;;;18.50;99.90;;;;;;5072633;28;20466;-65
2021/07/01 10:38:06;;;;;;;4.60;4.20;;;18.50;99.90;;;;;;5072858;28;21438;-65
2021/07/01 10:40:36;;;;;;;4.53;4.13;;;18.50;99.90;;;;;;5073059;28;20473;-65
2021/07/01 10:43:04;;;;;;;3.70;3.50;;;18.50;99.90;;;;;;5072943;28;20467;-65
2021/07/01 10:45:31;;;;;;;4.30;3.90;;;18.50;99.90;;;;;;5073004;28;20469;-65
2021/07/01 10:48:12;;;;;;;4.07;3.53;;;18.50;99.90;;;;;;5072411;28;20472;-65
2021/07/01 10:50:39;;;;;;;3.87;3.57;;;18.50;99.90;;;;;;5073154;28;20466;-65
2021/07/01 10:53:37;;;;;;;5.00;4.60;;;18.50;99.90;;;;;;5072889;28;20484;-65
2021/07/01 10:56:10;;;;;;;4.20;3.90;;;18.60;99.90;;;;;;5072532;28;20473;-67
2021/07/01 10:58:38;;;;;;;4.57;4.27;;;18.60;99.90;;;;;;5072908;28;20871;-64
2021/07/01 11:01:06;;;;;;;4.90;4.50;;;18.60;99.90;;;;;;5072281;28;20484;-65
2021/07/01 11:03:34;;;;;;;4.83;4.50;;;18.60;99.90;;;;;;5072822;28;20475;-65
2021/07/01 11:06:03;;;;;;;4.27;3.90;;;18.60;99.90;;;;;;5072456;28;20503;-65
2021/07/01 11:08:34;;;;;;;5.23;4.77;;;18.60;99.90;;;;;;5072835;28;20473;-65
2021/07/01 11:11:03;;;;;;;4.17;3.87;;;18.60;99.90;;;;;;5072562;28;20970;-66
2021/07/01 11:13:31;;;;;;;4.63;4.33;;;18.50;99.90;;;;;;5072499;28;20477;-65
2021/07/01 11:16:03;;;;;;;7.63;4.60;;;18.50;99.90;;;;;;5072344;28;20465;-65
2021/07/01 11:18:41;;;;;;;4.40;3.80;;;18.50;99.90;;;;;;5072577;28;20559;-65
2021/07/01 11:21:16;;;;;;;6.07;5.63;;;18.60;99.90;;;;;;5072259;28;20460;-66
2021/07/01 11:23:46;;;;;;;6.80;5.20;;;18.50;99.90;;;;;;5072305;28;20963;-66
2021/07/01 11:26:28;;;;;;;6.23;4.30;;;18.60;99.90;;;;;;5072621;28;20464;-65
2021/07/01 11:28:56;;;;;;;5.13;4.73;;;18.60;99.90;;;;;;5072129;28;20470;-66
2021/07/01 11:31:38;;;;;;;4.57;4.27;;;18.60;99.90;;;;;;5076459;28;20464;-66
2021/07/01 11:34:06;;;;;;;6.13;5.63;;;18.60;99.90;;;;;;5076093;28;20462;-65
2021/07/01 11:36:34;;;;;;;6.97;6.37;;;18.60;99.90;;;;;;5076578;28;20483;-66
2021/07/01 11:39:14;;;;;;;5.93;5.33;;;18.60;99.90;;;;;;5075832;28;20488;-65
2021/07/01 11:41:43;;;;;;;5.57;5.10;;;18.60;99.90;;;;;;5076386;28;20465;-64
2021/07/01 11:44:11;;;;;;;7.13;6.63;;;18.60;99.90;;;;;;5075992;28;20498;-64
2021/07/01 11:46:39;;;;;;;5.40;5.00;;;18.60;99.90;;;;;;5076275;28;20515;-64
2021/07/01 11:49:07;;;;;;;5.90;5.40;;;18.60;99.90;;;;;;5075918;28;20482;-64
2021/07/01 11:51:35;;;;;;;6.00;5.60;;;18.60;99.90;;;;;;5076310;28;20525;-65
2021/07/01 11:54:04;;;;;;;5.80;5.40;;;18.70;99.90;;;;;;5075744;28;20475;-65
2021/07/01 11:56:53;;;;;;;5.73;5.33;;;18.70;99.90;;;;;;5076177;28;20474;-64
2021/07/01 11:59:21;;;;;;;5.90;5.40;;;18.70;99.90;;;;;;5075747;28;21266;-65
2021/07/01 12:01:48;;;;;;;6.27;5.50;;;18.70;99.90;;;;;;5076199;28;20494;-65
2021/07/01 12:04:16;;;;;;;5.23;4.83;;;18.70;99.90;;;;;;5075501;28;20468;-65
2021/07/01 12:06:50;;;;;;;6.73;6.13;;;18.70;99.90;;;;;;5075998;28;20463;-65
2021/07/01 12:09:19;;;;;;;7.00;6.40;;;18.80;99.90;;;;;;5075497;28;20480;-65
2021/07/01 12:12:12;;;;;;;6.87;6.27;;;18.80;99.90;;;;;;5075834;28;20485;-64
2021/07/01 12:14:41;;;;;;;6.73;6.10;;;18.80;99.90;;;;;;5075653;28;20468;-65
2021/07/01 12:17:08;;;;;;;6.13;5.60;;;18.80;99.90;;;;;;5075758;28;20855;-65
2021/07/01 12:20:03;;;;;;;10.87;7.20;;;18.80;99.90;;;;;;5075650;28;20469;-65
2021/07/01 12:22:46;;;;;;;7.73;6.90;;;18.80;99.90;;;;;;5075447;28;20947;-65
2021/07/01 12:25:17;;;;;;;7.87;7.00;;;18.80;99.90;;;;;;5075644;28;20465;-64
2021/07/01 12:27:45;;;;;;;8.27;7.57;;;18.80;99.90;;;;;;5075184;28;20496;-65
2021/07/01 12:30:13;;;;;;;9.20;8.30;;;18.80;99.90;;;;;;5075440;28;20476;-64
2021/07/01 12:32:39;;;;;;;11.30;9.47;;;18.80;99.90;;;;;;5074952;28;20451;-65
2021/07/01 12:35:40;;;;;;;8.23;7.60;;;18.90;99.90;;;;;;5075475;28;20519;-65
2021/07/01 12:38:11;;;;;;;9.83;8.83;;;18.80;99.90;;;;;;5070529;28;20463;-65
2021/07/01 12:40:54;;;;;;;8.80;8.10;;;18.90;99.90;;;;;;5075184;28;20977;-65
2021/07/01 12:43:54;;;;;;;9.80;8.90;;;18.90;99.90;;;;;;5074565;28;20472;-65
2021/07/01 12:46:55;;;;;;;10.37;9.13;;;18.90;99.90;;;;;;5074919;28;20465;-65
2021/07/01 12:49:52;;;;;;;9.43;8.37;;;18.90;99.90;;;;;;5056306;28;20482;-64
2021/07/01 12:52:31;;;;;;;9.80;8.33;;;19.00;99.90;;;;;;5074722;28;20458;-64
2021/07/01 12:55:00;;;;;;;10.50;8.60;;;18.90;99.90;;;;;;5075094;28;20481;-65
2021/07/01 12:57:27;;;;;;;10.23;9.33;;;18.90;99.90;;;;;;5074496;28;20481;-64